Time;durP1;ratioP1;P1;durP2;ratioP2;P2;SDS_P1;SDS_P2;PMS_P1;PMS_P2;Temp;Humidity;BMP_temperature;BMP_pressure;BME280_temperature;BME280_humidity;BME280_pressure;Samples;Min_cycle;Max_cycle;Signal;HPM_P1;HPM_P2
2021/08/10 00:00:37;;;;;;;26.13;24.73;;;17.20;78.10;;;;;;5051672;28;20477;-72
2021/08/10 00:03:04;;;;;;;27.47;25.77;;;17.10;78.70;;;;;;5052281;28;20549;-72
2021/08/10 00:05:32;;;;;;;27.23;25.83;;;17.00;78.70;;;;;;5048612;28;20485;-72
2021/08/10 00:08:00;;;;;;;27.80;26.03;;;17.00;78.70;;;;;;5062649;28;20596;-72
2021/08/10 00:10:27;;;;;;;26.60;25.17;;;17.00;78.70;;;;;;5050927;28;21082;-72
2021/08/10 00:12:55;;;;;;;26.87;25.37;;;17.00;78.60;;;;;;5047413;28;20478;-72
2021/08/10 00:15:22;;;;;;;26.87;25.17;;;16.90;78.80;;;;;;5050443;28;20470;-72
2021/08/10 00:17:49;;;;;;;25.80;24.40;;;16.90;79.00;;;;;;5050913;28;20482;-72
2021/08/10 00:20:16;;;;;;;26.40;24.80;;;16.90;79.20;;;;;;5049895;28;20828;-72
2021/08/10 00:22:45;;;;;;;27.17;25.73;;;16.90;79.10;;;;;;5051449;28;20983;-72
2021/08/10 00:25:12;;;;;;;27.10;25.60;;;16.80;79.40;;;;;;5050681;28;20454;-72
2021/08/10 00:27:39;;;;;;;27.30;25.60;;;16.80;79.50;;;;;;5052713;28;21047;-72
2021/08/10 00:30:07;;;;;;;27.70;25.67;;;16.80;79.50;;;;;;5050026;28;21057;-72
2021/08/10 00:32:33;;;;;;;26.97;25.37;;;16.80;79.40;;;;;;5051846;28;20542;-72
2021/08/10 00:35:01;;;;;;;26.13;24.73;;;16.80;79.20;;;;;;5049770;28;21020;-72
2021/08/10 00:37:27;;;;;;;26.00;24.60;;;16.80;79.50;;;;;;5050665;28;20479;-72
2021/08/10 00:39:56;;;;;;;26.37;24.97;;;16.70;80.50;;;;;;5051040;28;20459;-72
2021/08/10 00:42:23;;;;;;;26.57;25.17;;;16.70;80.00;;;;;;5048967;28;20574;-72
2021/08/10 00:44:49;;;;;;;26.87;25.37;;;16.70;80.00;;;;;;5047119;28;20461;-72
2021/08/10 00:47:16;;;;;;;26.60;25.10;;;16.60;80.10;;;;;;5059012;28;20566;-72
2021/08/10 00:49:43;;;;;;;26.20;24.83;;;16.60;80.00;;;;;;5046315;28;20463;-72
2021/08/10 00:52:11;;;;;;;26.90;25.30;;;16.60;80.20;;;;;;5051888;28;20447;-72
2021/08/10 00:54:37;;;;;;;26.00;24.50;;;16.50;80.30;;;;;;5048785;28;20463;-72
2021/08/10 00:57:06;;;;;;;26.17;24.60;;;16.50;80.40;;;;;;5047508;28;20718;-72
2021/08/10 00:59:33;;;;;;;26.67;24.93;;;16.50;80.40;;;;;;5038633;28;20463;-72
2021/08/10 01:02:00;;;;;;;26.17;24.67;;;16.50;80.40;;;;;;5045403;28;21010;-72
2021/08/10 01:04:27;;;;;;;25.60;24.20;;;16.50;80.60;;;;;;5049310;28;20462;-72
2021/08/10 01:07:05;;;;;;;25.87;24.47;;;16.40;80.80;;;;;;5047915;28;21014;-72
2021/08/10 01:09:40;;;;;;;26.97;25.30;;;16.50;80.80;;;;;;5050556;28;20462;-72
2021/08/10 01:12:14;;;;;;;27.23;25.50;;;16.50;80.90;;;;;;5049052;28;21012;-72
2021/08/10 01:14:47;;;;;;;27.00;25.60;;;16.40;81.10;;;;;;5063698;28;20462;-72
2021/08/10 01:17:21;;;;;;;27.67;26.10;;;16.50;80.90;;;;;;5047158;28;20514;-72
2021/08/10 01:20:04;;;;;;;27.20;25.70;;;16.50;81.00;;;;;;5050281;28;20464;-72
2021/08/10 01:22:31;;;;;;;26.80;25.30;;;16.40;81.10;;;;;;5049390;28;20478;-71
2021/08/10 01:25:04;;;;;;;27.47;25.87;;;16.40;81.30;;;;;;5049672;28;20459;-72
2021/08/10 01:27:47;;;;;;;26.40;24.63;;;16.40;81.30;;;;;;5045497;28;20571;-71
2021/08/10 01:30:18;;;;;;;26.93;25.43;;;16.40;82.00;;;;;;5050473;28;20552;-71
2021/08/10 01:32:49;;;;;;;26.67;25.20;;;16.40;82.00;;;;;;5049205;28;20456;-71
2021/08/10 01:35:19;;;;;;;27.30;25.90;;;16.40;81.80;;;;;;5055402;28;20461;-71
2021/08/10 01:37:50;;;;;;;26.27;24.90;;;16.40;81.80;;;;;;5051103;28;20509;-71
2021/08/10 01:40:18;;;;;;;26.83;25.40;;;16.40;81.80;;;;;;5051996;28;20475;-72
2021/08/10 01:42:45;;;;;;;26.43;25.03;;;16.40;81.90;;;;;;5046580;28;20485;-71
2021/08/10 01:45:13;;;;;;;26.53;25.03;;;16.30;82.20;;;;;;5050935;28;20462;-72
2021/08/10 01:47:43;;;;;;;27.30;25.80;;;16.30;82.20;;;;;;5048489;28;20994;-71
2021/08/10 01:50:12;;;;;;;26.03;24.73;;;16.30;82.20;;;;;;5049607;28;20455;-71
2021/08/10 01:52:42;;;;;;;27.37;25.87;;;16.30;82.30;;;;;;5048321;28;20773;-71
2021/08/10 01:55:10;;;;;;;27.23;25.73;;;16.20;82.50;;;;;;5050526;28;20983;-71
2021/08/10 01:57:38;;;;;;;26.10;24.70;;;16.20;82.60;;;;;;5048415;28;20477;-72
2021/08/10 02:00:06;;;;;;;25.60;24.30;;;16.10;82.90;;;;;;5050555;28;20465;-71
2021/08/10 02:02:34;;;;;;;25.83;24.43;;;16.10;82.90;;;;;;5048875;28;20820;-72
2021/08/10 02:05:02;;;;;;;26.03;24.63;;;16.10;83.50;;;;;;5049936;28;20471;-71
2021/08/10 02:07:30;;;;;;;25.90;24.50;;;16.10;83.50;;;;;;5049490;28;21075;-72
2021/08/10 02:09:59;;;;;;;25.57;24.17;;;16.10;83.40;;;;;;5048708;28;20821;-71
2021/08/10 02:12:27;;;;;;;26.03;24.63;;;16.00;83.50;;;;;;5046798;28;20887;-71
2021/08/10 02:14:54;;;;;;;26.10;24.70;;;16.00;83.60;;;;;;5050581;28;20463;-71
2021/08/10 02:17:21;;;;;;;25.87;24.27;;;15.90;83.90;;;;;;5049058;28;20471;-71
2021/08/10 02:19:48;;;;;;;25.70;24.30;;;15.90;84.10;;;;;;5047860;28;20470;-71
2021/08/10 02:22:17;;;;;;;25.50;24.20;;;15.90;84.30;;;;;;5048341;28;20483;-71
2021/08/10 02:24:50;;;;;;;26.20;24.80;;;15.90;84.30;;;;;;5052948;28;20467;-71
2021/08/10 02:27:21;;;;;;;27.03;25.63;;;15.90;84.20;;;;;;5049111;28;20483;-71
2021/08/10 02:29:51;;;;;;;25.43;23.83;;;15.80;84.60;;;;;;5051532;28;20963;-71
2021/08/10 02:32:23;;;;;;;26.00;24.50;;;15.80;84.70;;;;;;5048506;28;20451;-71
2021/08/10 02:34:51;;;;;;;25.47;23.97;;;15.70;84.80;;;;;;5048718;28;20981;-72
2021/08/10 02:37:19;;;;;;;25.93;24.53;;;15.60;85.20;;;;;;5048792;28;20554;-71
2021/08/10 02:39:50;;;;;;;24.80;23.40;;;15.60;85.30;;;;;;5049653;28;21099;-71
2021/08/10 02:42:18;;;;;;;25.17;23.87;;;15.50;85.40;;;;;;5045877;28;20867;-71
2021/08/10 02:44:47;;;;;;;24.60;23.30;;;15.50;85.40;;;;;;5050011;28;20494;-71
2021/08/10 02:47:14;;;;;;;24.70;23.40;;;15.60;85.30;;;;;;5052684;28;20570;-72
2021/08/10 02:49:41;;;;;;;24.40;23.10;;;15.60;85.30;;;;;;5047982;28;21008;-71
2021/08/10 02:52:09;;;;;;;27.10;25.60;;;15.50;85.50;;;;;;5058639;28;20454;-71
2021/08/10 02:54:37;;;;;;;25.23;23.77;;;15.60;85.40;;;;;;5047825;28;20990;-71
2021/08/10 02:57:10;;;;;;;25.00;23.50;;;15.60;85.30;;;;;;5047151;28;20471;-71
2021/08/10 02:59:43;;;;;;;25.00;23.63;;;15.60;85.40;;;;;;5049302;28;20467;-71
2021/08/10 03:02:16;;;;;;;26.20;24.80;;;15.60;85.50;;;;;;5048261;28;20510;-71
2021/08/10 03:04:48;;;;;;;24.47;23.13;;;15.60;85.50;;;;;;5047354;28;20547;-72
2021/08/10 03:07:16;;;;;;;23.50;22.10;;;15.50;85.70;;;;;;5047310;28;20489;-71
2021/08/10 03:09:44;;;;;;;25.10;23.50;;;15.60;85.50;;;;;;5049095;28;20459;-72
2021/08/10 03:12:14;;;;;;;25.17;23.77;;;15.50;85.60;;;;;;5047626;28;20469;-72
2021/08/10 03:14:42;;;;;;;24.27;22.93;;;15.50;85.70;;;;;;5049205;28;20496;-72
2021/08/10 03:17:10;;;;;;;24.13;22.63;;;15.50;85.60;;;;;;5046600;28;20845;-72
2021/08/10 03:19:41;;;;;;;24.60;23.30;;;15.60;85.50;;;;;;5043380;28;20545;-72
2021/08/10 03:22:09;;;;;;;24.63;23.23;;;15.60;85.50;;;;;;5045873;28;21071;-72
2021/08/10 03:24:36;;;;;;;26.57;25.00;;;15.50;86.00;;;;;;5044945;28;20443;-72
2021/08/10 03:27:05;;;;;;;24.97;23.67;;;15.50;86.00;;;;;;5048077;28;20481;-71
2021/08/10 03:29:34;;;;;;;25.77;24.27;;;15.50;85.90;;;;;;5045901;28;20528;-72
2021/08/10 03:32:03;;;;;;;25.70;24.10;;;15.50;85.80;;;;;;5045051;28;20455;-71
2021/08/10 03:34:32;;;;;;;23.90;22.60;;;15.50;85.90;;;;;;5046650;28;20458;-72
2021/08/10 03:37:01;;;;;;;23.53;22.17;;;15.60;86.30;;;;;;5048485;28;20479;-72
2021/08/10 03:39:28;;;;;;;23.97;22.37;;;15.50;87.00;;;;;;5060005;28;20811;-72
2021/08/10 03:41:56;;;;;;;26.97;25.67;;;15.60;86.60;;;;;;5048793;28;20568;-71
2021/08/10 03:44:23;;;;;;;23.90;22.50;;;15.60;86.30;;;;;;5053525;28;20466;-72
2021/08/10 03:46:52;;;;;;;24.50;23.10;;;15.60;86.00;;;;;;5046487;28;20475;-72
2021/08/10 03:49:22;;;;;;;27.87;26.10;;;15.60;85.90;;;;;;5035274;28;20456;-72
2021/08/10 03:51:50;;;;;;;24.23;22.70;;;15.60;85.90;;;;;;5047135;28;20455;-72
2021/08/10 03:54:17;;;;;;;23.90;22.60;;;15.50;86.50;;;;;;5046626;28;20458;-72
2021/08/10 03:56:49;;;;;;;24.83;23.27;;;15.50;86.50;;;;;;5047610;28;21075;-71
2021/08/10 03:59:18;;;;;;;24.73;23.33;;;15.50;86.30;;;;;;5038882;28;20470;-72
2021/08/10 04:01:47;;;;;;;28.53;27.00;;;15.40;86.10;;;;;;5046570;28;20474;-72
2021/08/10 04:04:16;;;;;;;23.93;22.53;;;15.40;86.30;;;;;;5046358;28;20824;-71
2021/08/10 04:06:44;;;;;;;24.60;23.20;;;15.40;86.20;;;;;;5043490;28;21056;-71
2021/08/10 04:09:12;;;;;;;24.57;23.17;;;15.30;86.40;;;;;;5048579;28;20463;-71
2021/08/10 04:11:40;;;;;;;24.60;23.20;;;15.30;86.50;;;;;;5046895;28;20463;-71
2021/08/10 04:14:07;;;;;;;25.10;23.60;;;15.30;86.80;;;;;;5047336;28;20473;-71
2021/08/10 04:16:41;;;;;;;28.23;26.63;;;15.20;87.10;;;;;;5045569;28;20921;-72
2021/08/10 04:19:09;;;;;;;24.97;23.53;;;15.20;87.10;;;;;;5041954;28;20550;-72
2021/08/10 04:21:37;;;;;;;28.00;26.17;;;15.30;87.20;;;;;;5047495;28;20466;-71
2021/08/10 04:24:05;;;;;;;25.67;23.93;;;15.30;87.10;;;;;;5047508;28;20467;-71
2021/08/10 04:26:33;;;;;;;25.37;23.87;;;15.30;87.10;;;;;;5047404;28;21282;-72
2021/08/10 04:29:00;;;;;;;23.70;22.40;;;15.40;86.80;;;;;;5045403;28;20470;-71
2021/08/10 04:31:27;;;;;;;24.93;23.23;;;15.40;86.70;;;;;;5045262;28;20451;-72
2021/08/10 04:33:54;;;;;;;25.50;23.90;;;15.40;86.60;;;;;;5045044;28;20474;-72
2021/08/10 04:36:21;;;;;;;27.20;25.40;;;15.40;86.70;;;;;;5045775;28;20574;-72
2021/08/10 04:38:49;;;;;;;26.57;25.07;;;15.50;86.50;;;;;;5048649;28;20497;-72
2021/08/10 04:41:16;;;;;;;27.90;26.17;;;15.60;86.30;;;;;;5048201;28;20458;-72
2021/08/10 04:43:43;;;;;;;26.27;24.87;;;15.60;86.10;;;;;;5047855;28;21067;-72
2021/08/10 04:46:10;;;;;;;26.20;24.77;;;15.80;85.70;;;;;;5051051;28;20538;-72
2021/08/10 04:48:37;;;;;;;27.47;25.87;;;15.80;85.70;;;;;;5049393;28;20469;-72
2021/08/10 04:51:04;;;;;;;25.70;24.10;;;15.80;85.80;;;;;;5045004;28;20549;-71
2021/08/10 04:53:30;;;;;;;24.43;23.03;;;15.90;85.90;;;;;;5051537;28;20538;-72
2021/08/10 04:55:59;;;;;;;25.10;23.80;;;16.00;85.60;;;;;;5045904;28;20490;-72
2021/08/10 04:58:26;;;;;;;26.60;24.97;;;16.10;85.50;;;;;;5050255;28;20485;-73
2021/08/10 05:00:53;;;;;;;27.23;25.43;;;16.20;85.30;;;;;;5054443;28;20458;-73
2021/08/10 05:03:20;;;;;;;25.33;23.93;;;16.20;85.10;;;;;;5051446;28;20481;-72
2021/08/10 05:05:48;;;;;;;24.53;23.13;;;16.30;84.80;;;;;;5050542;28;20485;-73
2021/08/10 05:08:15;;;;;;;25.00;23.60;;;16.40;84.60;;;;;;5049867;28;21008;-73
2021/08/10 05:10:42;;;;;;;26.53;24.97;;;16.60;84.00;;;;;;5052086;28;20550;-75
2021/08/10 05:13:11;;;;;;;25.53;23.93;;;16.60;83.70;;;;;;5050689;28;20447;-72
2021/08/10 05:15:38;;;;;;;27.57;25.97;;;16.70;83.40;;;;;;5052631;28;20458;-73
2021/08/10 05:18:06;;;;;;;24.53;23.20;;;16.80;83.10;;;;;;5050252;28;20479;-73
2021/08/10 05:20:34;;;;;;;29.73;27.83;;;16.80;83.20;;;;;;5052369;28;20493;-73
2021/08/10 05:23:01;;;;;;;30.20;28.23;;;16.80;83.10;;;;;;5050134;28;21115;-77
2021/08/10 05:25:28;;;;;;;30.57;29.10;;;16.90;83.00;;;;;;5056181;28;20455;-75
2021/08/10 05:27:55;;;;;;;27.37;25.60;;;16.90;82.90;;;;;;5054135;28;20482;-71
2021/08/10 05:30:24;;;;;;;26.90;25.23;;;17.00;82.30;;;;;;5043449;28;20463;-72
2021/08/10 05:32:51;;;;;;;28.40;26.63;;;17.10;82.20;;;;;;5049563;28;20454;-72
2021/08/10 05:35:17;;;;;;;26.97;25.47;;;17.10;82.10;;;;;;5048447;28;20453;-72
2021/08/10 05:37:44;;;;;;;28.27;26.50;;;17.20;82.00;;;;;;5047894;28;20827;-72
2021/08/10 05:40:12;;;;;;;25.90;24.50;;;17.30;81.70;;;;;;5049801;28;20451;-71
2021/08/10 05:42:40;;;;;;;28.67;26.97;;;17.30;82.20;;;;;;5046176;28;20482;-72
2021/08/10 05:45:07;;;;;;;29.37;27.57;;;17.40;84.40;;;;;;5049297;28;20461;-76
2021/08/10 05:47:36;;;;;;;28.50;26.90;;;17.50;83.10;;;;;;5049237;28;20479;-75
2021/08/10 05:50:03;;;;;;;26.47;25.03;;;17.60;81.70;;;;;;5047542;28;20534;-74
2021/08/10 05:52:31;;;;;;;26.67;25.17;;;17.80;81.10;;;;;;5059008;28;20537;-75
2021/08/10 05:54:58;;;;;;;28.37;26.53;;;17.90;80.50;;;;;;5042882;28;20458;-74
2021/08/10 05:57:25;;;;;;;26.47;24.87;;;17.90;80.20;;;;;;5037948;28;21085;-72
2021/08/10 05:59:52;;;;;;;25.30;23.90;;;18.00;79.90;;;;;;5040275;28;20469;-73
2021/08/10 06:02:19;;;;;;;27.73;25.63;;;18.00;79.80;;;;;;5046604;28;20458;-73
2021/08/10 06:04:47;;;;;;;28.90;27.30;;;18.10;79.70;;;;;;5055731;28;20505;-73
2021/08/10 06:07:14;;;;;;;27.43;25.83;;;18.20;79.10;;;;;;5049540;28;20996;-73
2021/08/10 06:09:43;;;;;;;29.53;27.80;;;18.40;78.90;;;;;;5050397;28;20471;-73
2021/08/10 06:12:11;;;;;;;27.63;25.80;;;18.40;78.40;;;;;;5048015;28;20450;-72
2021/08/10 06:14:37;;;;;;;28.80;27.10;;;18.60;78.00;;;;;;5041959;28;20459;-73
2021/08/10 06:17:05;;;;;;;27.47;25.77;;;18.60;77.60;;;;;;5052436;28;20579;-75
2021/08/10 06:19:31;;;;;;;30.63;28.73;;;18.70;77.60;;;;;;5058194;28;20512;-73
2021/08/10 06:22:00;;;;;;;28.57;26.67;;;18.90;77.90;;;;;;5049402;28;20972;-74
2021/08/10 06:24:28;;;;;;;30.57;28.50;;;18.90;78.30;;;;;;5050485;28;20561;-74
2021/08/10 06:26:58;;;;;;;27.20;25.53;;;19.00;77.40;;;;;;5050103;28;20475;-74
2021/08/10 06:29:25;;;;;;;27.70;26.20;;;19.20;76.80;;;;;;5058445;28;20542;-74
2021/08/10 06:31:52;;;;;;;28.70;27.07;;;19.30;76.80;;;;;;5048846;28;20538;-78
2021/08/10 06:34:19;;;;;;;27.70;26.10;;;19.50;75.80;;;;;;5051556;28;20451;-73
2021/08/10 06:36:46;;;;;;;27.90;26.30;;;19.70;75.30;;;;;;5056046;28;20570;-72
2021/08/10 06:39:15;;;;;;;30.10;28.50;;;19.90;74.80;;;;;;5050474;28;21184;-73
2021/08/10 06:41:41;;;;;;;28.23;26.53;;;20.00;74.30;;;;;;5049646;28;21263;-73
2021/08/10 06:44:08;;;;;;;27.43;25.83;;;20.20;73.60;;;;;;5050041;28;20518;-73
2021/08/10 06:46:35;;;;;;;29.13;27.23;;;20.40;73.10;;;;;;5049709;28;21330;-73
2021/08/10 06:49:02;;;;;;;28.70;27.00;;;20.50;71.90;;;;;;5045646;28;20531;-72
2021/08/10 06:51:32;;;;;;;30.40;28.50;;;20.70;71.30;;;;;;5044941;28;20455;-73
2021/08/10 06:53:58;;;;;;;30.43;28.73;;;20.90;70.40;;;;;;5050594;28;20473;-73
2021/08/10 06:56:27;;;;;;;27.53;25.93;;;21.00;69.80;;;;;;5055444;28;20509;-73
2021/08/10 06:58:54;;;;;;;28.23;26.43;;;21.20;69.50;;;;;;5049707;28;20539;-72
2021/08/10 07:01:21;;;;;;;29.40;27.60;;;21.40;68.70;;;;;;5062980;28;20545;-73
2021/08/10 07:03:48;;;;;;;30.17;28.67;;;21.40;68.20;;;;;;5048061;28;20459;-73
2021/08/10 07:06:15;;;;;;;28.03;26.27;;;21.40;68.00;;;;;;5059298;28;20479;-73
2021/08/10 07:08:42;;;;;;;28.63;27.00;;;21.40;68.40;;;;;;5048548;28;20546;-72
2021/08/10 07:11:12;;;;;;;30.47;28.67;;;21.40;68.40;;;;;;5053289;28;20821;-73
2021/08/10 07:13:42;;;;;;;27.83;26.20;;;21.50;68.10;;;;;;5049057;28;20993;-72
2021/08/10 07:16:09;;;;;;;28.57;26.67;;;21.50;68.20;;;;;;5050248;28;20451;-72
2021/08/10 07:18:42;;;;;;;28.70;27.10;;;21.50;67.70;;;;;;5047412;28;20465;-72
2021/08/10 07:21:08;;;;;;;28.73;27.03;;;21.60;68.00;;;;;;5049770;28;20451;-71
2021/08/10 07:23:35;;;;;;;29.77;27.97;;;21.70;67.50;;;;;;5047666;28;20483;-71
2021/08/10 07:26:02;;;;;;;30.97;28.77;;;21.90;67.50;;;;;;5049939;28;20570;-73
2021/08/10 07:28:29;;;;;;;27.83;26.20;;;22.10;67.10;;;;;;5047113;28;20963;-72
2021/08/10 07:30:58;;;;;;;31.47;29.77;;;22.20;66.90;;;;;;5049590;28;20451;-72
2021/08/10 07:33:25;;;;;;;31.20;29.40;;;22.40;66.80;;;;;;5046963;28;20548;-71
2021/08/10 07:35:51;;;;;;;28.60;26.87;;;22.60;66.70;;;;;;5056687;28;20446;-71
2021/08/10 07:38:18;;;;;;;28.50;26.80;;;22.80;66.00;;;;;;5048894;28;20481;-72
2021/08/10 07:40:45;;;;;;;27.93;26.33;;;22.90;66.00;;;;;;5049425;28;20473;-72
2021/08/10 07:43:12;;;;;;;28.40;26.70;;;22.90;64.60;;;;;;5050028;28;20465;-72
2021/08/10 07:45:40;;;;;;;31.47;29.47;;;23.10;64.10;;;;;;5049943;28;20469;-72
2021/08/10 07:48:08;;;;;;;32.10;30.30;;;23.10;64.50;;;;;;5058635;28;20482;-71
2021/08/10 07:50:35;;;;;;;28.93;27.33;;;23.20;64.10;;;;;;5057562;28;20496;-71
2021/08/10 07:53:02;;;;;;;29.70;27.80;;;23.40;64.10;;;;;;5050245;28;20458;-71
2021/08/10 07:55:29;;;;;;;31.90;29.90;;;23.60;64.00;;;;;;5049716;28;20466;-71
2021/08/10 07:57:56;;;;;;;29.67;27.87;;;23.60;63.60;;;;;;5057886;28;20485;-71
2021/08/10 08:00:23;;;;;;;29.67;27.50;;;23.80;63.30;;;;;;5049552;28;20565;-73
2021/08/10 08:02:50;;;;;;;30.77;28.70;;;23.90;63.00;;;;;;5053385;28;20456;-72
2021/08/10 08:05:18;;;;;;;28.60;26.60;;;23.90;63.20;;;;;;5049083;28;20887;-73
2021/08/10 08:07:45;;;;;;;29.83;28.13;;;23.90;62.80;;;;;;5047686;28;20470;-73
2021/08/10 08:10:12;;;;;;;28.47;26.57;;;23.90;62.80;;;;;;5049923;28;20455;-73
2021/08/10 08:12:39;;;;;;;30.33;28.43;;;24.00;63.10;;;;;;5052060;28;20579;-73
2021/08/10 08:15:07;;;;;;;31.93;29.80;;;24.00;63.20;;;;;;5050746;28;20499;-71
2021/08/10 08:17:34;;;;;;;30.90;28.90;;;24.10;63.30;;;;;;5051943;28;20486;-72
2021/08/10 08:20:05;;;;;;;31.23;28.63;;;24.20;63.40;;;;;;5055064;28;20808;-72
2021/08/10 08:22:33;;;;;;;30.33;28.17;;;24.20;63.50;;;;;;5045633;28;20478;-72
2021/08/10 08:25:02;;;;;;;31.60;29.30;;;24.40;63.80;;;;;;5053105;28;20980;-73
2021/08/10 08:27:29;;;;;;;30.43;28.40;;;24.40;63.40;;;;;;5051254;28;20910;-73
2021/08/10 08:30:02;;;;;;;30.87;29.10;;;24.50;63.70;;;;;;5051760;28;20475;-73
2021/08/10 08:32:29;;;;;;;29.60;27.60;;;24.70;63.20;;;;;;5060160;28;20461;-72
2021/08/10 08:34:57;;;;;;;99.37;38.13;;;24.90;62.90;;;;;;5052339;28;20475;-72
2021/08/10 08:37:24;;;;;;;31.77;29.20;;;25.00;63.00;;;;;;5051319;28;20474;-72
2021/08/10 08:39:53;;;;;;;32.57;29.83;;;25.10;62.10;;;;;;5052364;28;20450;-73
2021/08/10 08:42:21;;;;;;;29.47;27.50;;;25.30;61.10;;;;;;5058307;28;20520;-72
2021/08/10 08:44:49;;;;;;;29.97;28.17;;;25.40;60.50;;;;;;5051827;28;20479;-72
2021/08/10 08:47:21;;;;;;;30.90;29.10;;;25.60;59.70;;;;;;5057753;28;20555;-72
2021/08/10 08:49:52;;;;;;;31.07;29.37;;;25.60;59.20;;;;;;5056019;28;20458;-72
2021/08/10 08:52:20;;;;;;;28.67;27.00;;;25.50;59.10;;;;;;5053255;28;20824;-72
2021/08/10 08:54:47;;;;;;;31.87;30.13;;;25.50;59.20;;;;;;5055328;28;20457;-72
2021/08/10 08:57:15;;;;;;;30.17;28.40;;;25.50;58.80;;;;;;5058006;28;20483;-71
2021/08/10 08:59:43;;;;;;;30.33;28.40;;;25.60;58.90;;;;;;5058666;28;20458;-71
2021/08/10 09:02:16;;;;;;;27.83;26.23;;;25.50;57.40;;;;;;5052056;28;20454;-71
2021/08/10 09:04:44;;;;;;;29.73;27.93;;;25.50;57.60;;;;;;5052239;28;20487;-73
2021/08/10 09:07:11;;;;;;;28.83;27.13;;;25.60;57.60;;;;;;5051005;28;20485;-71
2021/08/10 09:09:38;;;;;;;31.23;29.33;;;25.80;57.30;;;;;;5051378;28;20553;-71
2021/08/10 09:12:11;;;;;;;28.10;26.33;;;25.80;57.20;;;;;;5050431;28;20455;-73
2021/08/10 09:14:47;;;;;;;27.13;25.63;;;25.90;56.50;;;;;;5051229;28;20458;-71
2021/08/10 09:17:16;;;;;;;28.53;26.90;;;26.10;54.90;;;;;;5051325;28;20481;-72
2021/08/10 09:19:47;;;;;;;27.67;26.10;;;26.00;54.70;;;;;;5051945;28;20973;-72
2021/08/10 09:22:26;;;;;;;28.53;26.80;;;25.90;55.10;;;;;;5050110;28;20458;-71
2021/08/10 09:24:55;;;;;;;31.67;29.87;;;26.00;55.10;;;;;;5052180;28;20478;-72
2021/08/10 09:27:30;;;;;;;30.90;29.10;;;26.00;55.00;;;;;;5050338;28;20561;-71
2021/08/10 09:30:00;;;;;;;30.30;28.67;;;26.20;54.80;;;;;;5050962;28;20460;-71
2021/08/10 09:32:27;;;;;;;29.93;28.13;;;26.00;55.10;;;;;;5045639;28;20462;-72
2021/08/10 09:35:11;;;;;;;29.03;27.43;;;26.10;55.20;;;;;;5051250;28;20473;-72
2021/08/10 09:37:38;;;;;;;29.60;27.80;;;26.20;55.50;;;;;;5049059;28;20528;-71
2021/08/10 09:40:30;;;;;;;28.43;26.83;;;26.30;55.50;;;;;;5051118;28;20465;-72
2021/08/10 09:43:24;;;;;;;28.27;26.67;;;26.50;54.00;;;;;;5049720;28;20463;-72
2021/08/10 09:46:15;;;;;;;29.93;28.33;;;26.60;54.30;;;;;;5051040;28;20467;-72
2021/08/10 09:48:52;;;;;;;29.80;28.10;;;26.70;54.70;;;;;;5049960;28;20944;-72
2021/08/10 09:51:22;;;;;;;27.90;26.30;;;26.70;54.90;;;;;;5050876;28;20462;-74
2021/08/10 09:54:00;;;;;;;29.30;27.70;;;26.60;53.50;;;;;;5050199;28;20451;-73
2021/08/10 09:56:47;;;;;;;29.90;28.10;;;26.60;54.50;;;;;;5046722;28;20490;-73
2021/08/10 09:59:15;;;;;;;30.40;28.60;;;26.60;54.60;;;;;;5050947;28;21180;-72
2021/08/10 10:01:45;;;;;;;30.67;28.57;;;26.70;53.00;;;;;;5048998;28;21202;-74
2021/08/10 10:04:21;;;;;;;30.37;28.57;;;26.80;52.60;;;;;;5050847;28;20814;-73
2021/08/10 10:06:50;;;;;;;29.10;27.50;;;26.80;52.90;;;;;;5045982;28;20497;-73
2021/08/10 10:09:17;;;;;;;32.53;29.20;;;27.00;52.30;;;;;;5050934;28;20465;-73
2021/08/10 10:11:48;;;;;;;32.13;29.83;;;26.80;52.30;;;;;;5046822;28;20952;-73
2021/08/10 10:14:15;;;;;;;30.50;28.80;;;26.80;52.70;;;;;;5047534;28;20517;-73
2021/08/10 10:16:48;;;;;;;28.97;27.27;;;26.30;51.10;;;;;;5048868;28;20831;-73
2021/08/10 10:19:16;;;;;;;28.80;27.00;;;26.10;50.90;;;;;;5051451;28;20455;-73
2021/08/10 10:21:48;;;;;;;28.80;27.00;;;25.50;51.70;;;;;;5049049;28;20472;-73
2021/08/10 10:24:16;;;;;;;27.70;26.10;;;25.40;53.30;;;;;;5050447;28;20514;-74
2021/08/10 10:26:44;;;;;;;29.10;27.40;;;25.70;53.20;;;;;;5050050;28;20483;-74
2021/08/10 10:29:14;;;;;;;31.47;29.50;;;25.80;52.70;;;;;;5049274;28;20497;-76
2021/08/10 10:31:44;;;;;;;28.73;27.03;;;25.80;53.10;;;;;;5048470;28;20498;-72
2021/08/10 10:34:13;;;;;;;28.23;26.63;;;25.70;53.20;;;;;;5049874;28;20513;-72
2021/08/10 10:36:43;;;;;;;29.90;28.00;;;25.80;54.20;;;;;;5050332;28;20486;-72
2021/08/10 10:39:14;;;;;;;71.07;36.70;;;25.90;54.00;;;;;;5050569;28;20451;-73
2021/08/10 10:41:42;;;;;;;31.83;29.00;;;26.10;53.90;;;;;;5050253;28;20483;-73
2021/08/10 10:44:10;;;;;;;29.57;27.43;;;26.30;53.60;;;;;;5050782;28;20489;-73
2021/08/10 10:46:38;;;;;;;28.53;26.83;;;26.50;53.50;;;;;;5049773;28;20573;-72
2021/08/10 10:49:08;;;;;;;35.53;32.40;;;26.80;53.40;;;;;;5045270;28;20475;-71
2021/08/10 10:51:37;;;;;;;28.23;26.40;;;27.00;53.00;;;;;;5047481;28;20465;-73
2021/08/10 10:54:27;;;;;;;28.40;26.70;;;27.10;52.30;;;;;;5049552;28;20451;-73
2021/08/10 10:56:58;;;;;;;27.43;25.67;;;26.80;52.80;;;;;;5048690;28;20475;-71
2021/08/10 10:59:37;;;;;;;28.00;26.40;;;26.70;52.90;;;;;;5047653;28;20470;-73
2021/08/10 11:02:16;;;;;;;29.50;27.67;;;26.60;53.60;;;;;;5046198;28;20872;-72
2021/08/10 11:05:21;;;;;;;28.33;26.67;;;26.40;53.70;;;;;;5047860;28;20487;-71
2021/08/10 11:07:53;;;;;;;28.37;26.77;;;26.20;54.30;;;;;;5050533;28;20462;-72
2021/08/10 11:10:46;;;;;;;30.27;28.40;;;26.30;54.20;;;;;;5050789;28;20550;-72
2021/08/10 11:13:38;;;;;;;30.17;28.27;;;26.20;54.60;;;;;;5059082;28;20460;-72
2021/08/10 11:16:06;;;;;;;29.17;27.37;;;26.40;54.50;;;;;;5048228;28;20458;-72
2021/08/10 11:18:35;;;;;;;28.57;26.97;;;26.10;54.10;;;;;;5052916;28;20447;-73
2021/08/10 11:21:23;;;;;;;30.87;28.90;;;25.60;55.60;;;;;;5049784;28;20455;-71
2021/08/10 11:23:53;;;;;;;31.47;29.63;;;25.60;56.50;;;;;;5053001;28;20458;-72
2021/08/10 11:26:42;;;;;;;32.37;30.57;;;25.70;56.20;;;;;;5037514;28;20565;-73
2021/08/10 11:29:11;;;;;;;29.63;27.93;;;25.80;55.70;;;;;;5044565;28;20494;-72
2021/08/10 11:31:42;;;;;;;30.80;28.90;;;25.70;55.80;;;;;;5048489;28;20459;-72
2021/08/10 11:34:34;;;;;;;30.30;28.50;;;26.00;55.50;;;;;;5058965;28;20459;-78
2021/08/10 12:09:06;;;;;;;31.13;29.33;;;25.50;57.00;;;;;;5143344;27;20557;-75
2021/08/10 12:11:33;;;;;;;28.73;27.10;;;25.40;56.70;;;;;;5118420;27;20469;-75
2021/08/10 12:14:13;;;;;;;32.20;30.40;;;25.60;56.30;;;;;;5126106;27;20534;-76
2021/08/10 12:16:57;;;;;;;29.40;27.60;;;25.70;56.40;;;;;;5121859;27;20544;-76
2021/08/10 12:19:32;;;;;;;32.70;30.70;;;25.70;56.00;;;;;;5139654;27;20450;-74
2021/08/10 12:21:59;;;;;;;29.40;27.40;;;25.90;55.90;;;;;;5137271;27;20465;-75
2021/08/10 12:24:30;;;;;;;31.30;29.40;;;26.00;56.10;;;;;;5144521;27;21130;-76
2021/08/10 12:26:56;;;;;;;32.27;30.37;;;26.10;56.10;;;;;;5147459;27;21054;-75
2021/08/10 12:29:33;;;;;;;29.00;27.40;;;26.20;56.50;;;;;;5147397;27;21043;-72
2021/08/10 12:32:01;;;;;;;31.13;29.13;;;25.90;56.80;;;;;;5136974;27;20451;-74
2021/08/10 12:34:31;;;;;;;29.40;27.60;;;25.80;57.30;;;;;;5143680;27;20451;-75
2021/08/10 12:36:59;;;;;;;32.13;30.20;;;26.10;56.40;;;;;;5134099;27;20546;-75
2021/08/10 12:39:26;;;;;;;35.40;33.03;;;26.40;55.90;;;;;;5144632;27;20445;-73
2021/08/10 12:41:58;;;;;;;32.07;30.07;;;26.60;55.50;;;;;;5133823;27;20871;-73
2021/08/10 12:44:26;;;;;;;29.50;27.53;;;26.30;55.80;;;;;;5132440;27;20451;-73
2021/08/10 12:46:56;;;;;;;29.70;28.00;;;26.20;56.20;;;;;;5143284;27;21010;-71
2021/08/10 12:49:35;;;;;;;30.63;28.93;;;26.20;56.20;;;;;;5137332;27;20455;-72
2021/08/10 12:52:05;;;;;;;30.83;29.00;;;26.30;55.90;;;;;;5135002;27;20450;-74
2021/08/10 12:54:34;;;;;;;32.50;30.50;;;26.30;56.00;;;;;;5142564;27;20542;-74
2021/08/10 12:57:04;;;;;;;31.10;29.30;;;26.50;55.80;;;;;;5145696;27;21384;-73
2021/08/10 12:59:47;;;;;;;33.30;31.10;;;26.80;55.00;;;;;;5145976;27;20534;-74
2021/08/10 13:02:14;;;;;;;31.43;29.53;;;27.20;54.10;;;;;;5145820;27;20499;-77
2021/08/10 13:04:56;;;;;;;30.67;28.77;;;27.30;53.50;;;;;;5138953;27;20895;-73
2021/08/10 13:07:23;;;;;;;32.63;30.63;;;27.20;54.20;;;;;;5139191;27;20474;-73
2021/08/10 13:09:52;;;;;;;31.63;29.80;;;27.10;54.30;;;;;;5143925;27;20469;-74
2021/08/10 13:12:21;;;;;;;29.77;28.00;;;26.90;54.50;;;;;;5140601;27;20872;-75